createdAt,value
2023-03-16T00:00:05.802Z,1005.89
2023-03-16T00:00:15.937Z,1005.93
2023-03-16T00:00:26.157Z,1005.88
2023-03-16T00:00:35.830Z,1005.92
2023-03-16T00:00:45.865Z,1005.89
2023-03-16T00:00:55.771Z,1005.89
2023-03-16T00:01:05.816Z,1005.88
2023-03-16T00:01:15.852Z,1005.90
2023-03-16T00:01:25.772Z,1005.90
2023-03-16T00:01:35.859Z,1005.87
2023-03-16T00:01:45.829Z,1005.94
2023-03-16T00:01:55.927Z,1005.91
2023-03-16T00:02:05.819Z,1005.93
2023-03-16T00:02:15.875Z,1005.92
2023-03-16T00:02:25.885Z,1005.90
2023-03-16T00:02:35.757Z,1005.92
2023-03-16T00:02:45.834Z,1005.87
2023-03-16T00:02:55.835Z,1005.89
2023-03-16T00:03:05.869Z,1005.93
2023-03-16T00:03:15.927Z,1005.92
2023-03-16T00:03:25.862Z,1005.92
2023-03-16T00:03:35.856Z,1005.94
2023-03-16T00:03:45.760Z,1005.92
2023-03-16T00:03:55.783Z,1005.90
2023-03-16T00:04:05.823Z,1005.94
2023-03-16T00:04:15.751Z,1005.94
2023-03-16T00:04:25.763Z,1005.93
2023-03-16T00:04:35.816Z,1005.91
2023-03-16T00:04:45.761Z,1005.91
2023-03-16T00:04:55.762Z,1005.89
2023-03-16T00:05:05.802Z,1005.90
2023-03-16T00:05:15.762Z,1005.90
2023-03-16T00:05:25.789Z,1005.92
2023-03-16T00:05:35.762Z,1005.88
2023-03-16T00:05:46.280Z,1005.92
2023-03-16T00:05:55.748Z,1005.92
2023-03-16T00:06:05.760Z,1005.89
2023-03-16T00:06:15.772Z,1005.91
2023-03-16T00:06:25.923Z,1005.89
2023-03-16T00:06:35.739Z,1005.92
2023-03-16T00:06:45.780Z,1005.92
2023-03-16T00:06:55.820Z,1005.90
2023-03-16T00:07:05.746Z,1005.92
2023-03-16T00:07:15.782Z,1005.88
2023-03-16T00:07:25.822Z,1005.95
2023-03-16T00:07:35.753Z,1005.90
2023-03-16T00:07:45.779Z,1005.89
2023-03-16T00:07:55.853Z,1005.91
2023-03-16T00:08:05.753Z,1005.91
2023-03-16T00:08:15.766Z,1005.92
2023-03-16T00:08:25.931Z,1005.89
2023-03-16T00:08:35.761Z,1005.90
2023-03-16T00:08:45.793Z,1005.92
2023-03-16T00:08:55.766Z,1005.96
2023-03-16T00:09:05.761Z,1005.91
2023-03-16T00:09:15.809Z,1005.91
2023-03-16T00:09:25.832Z,1005.92
2023-03-16T00:09:35.761Z,1005.90
2023-03-16T00:09:45.755Z,1005.90
2023-03-16T00:09:55.756Z,1005.91
2023-03-16T00:10:05.769Z,1005.90
2023-03-16T00:10:15.810Z,1005.88
2023-03-16T00:10:25.981Z,1005.87
2023-03-16T00:10:35.774Z,1005.89
2023-03-16T00:10:45.809Z,1005.88
2023-03-16T00:10:55.735Z,1005.89
2023-03-16T00:11:05.770Z,1005.92
2023-03-16T00:11:16.319Z,1005.94
2023-03-16T00:11:25.740Z,1005.95
2023-03-16T00:11:35.777Z,1005.88
2023-03-16T00:11:45.814Z,1005.89
2023-03-16T00:11:55.754Z,1005.98
2023-03-16T00:12:05.802Z,1005.92
2023-03-16T00:12:15.852Z,1005.93
2023-03-16T00:12:25.741Z,1005.92
2023-03-16T00:12:35.749Z,1005.91
2023-03-16T00:12:45.730Z,1005.91
2023-03-16T00:12:55.749Z,1005.89
2023-03-16T00:13:05.793Z,1005.86
2023-03-16T00:13:15.731Z,1005.88
2023-03-16T00:13:25.753Z,1005.91
2023-03-16T00:13:35.797Z,1005.93
2023-03-16T00:13:45.727Z,1005.91
2023-03-16T00:13:55.810Z,1005.97
2023-03-16T00:14:05.796Z,1005.91
2023-03-16T00:14:15.722Z,1005.90
2023-03-16T00:14:25.728Z,1005.96
2023-03-16T00:14:36.298Z,1005.93
2023-03-16T00:14:45.717Z,1005.92
2023-03-16T00:14:55.718Z,1005.91
2023-03-16T00:15:05.787Z,1005.92
2023-03-16T00:15:15.733Z,1005.88
2023-03-16T00:15:25.737Z,1005.91
2023-03-16T00:15:35.708Z,1005.93
2023-03-16T00:15:45.741Z,1005.91
2023-03-16T00:15:55.814Z,1005.91
2023-03-16T00:16:05.845Z,1005.92
2023-03-16T00:16:15.843Z,1005.93
2023-03-16T00:16:25.768Z,1005.93
2023-03-16T00:16:35.738Z,1005.96
2023-03-16T00:16:45.779Z,1005.92
2023-03-16T00:16:55.772Z,1005.93
2023-03-16T00:17:06.297Z,1005.94
2023-03-16T00:17:15.839Z,1005.94
2023-03-16T00:17:25.700Z,1005.92
2023-03-16T00:17:35.710Z,1005.93
2023-03-16T00:17:45.715Z,1005.92
2023-03-16T00:17:55.785Z,1005.92
2023-03-16T00:18:05.722Z,1005.91
2023-03-16T00:18:15.752Z,1005.90
2023-03-16T00:18:25.704Z,1005.89
2023-03-16T00:18:36.328Z,1005.89
2023-03-16T00:18:45.781Z,1005.88
2023-03-16T00:18:55.703Z,1005.90
2023-03-16T00:19:05.746Z,1005.95
2023-03-16T00:19:15.744Z,1005.88
2023-03-16T00:19:25.703Z,1005.90
2023-03-16T00:19:35.709Z,1005.88
2023-03-16T00:19:45.782Z,1005.88
2023-03-16T00:19:55.802Z,1005.90
2023-03-16T00:20:05.927Z,1005.91
2023-03-16T00:20:15.754Z,1005.90
2023-03-16T00:20:26.590Z,1005.89
2023-03-16T00:20:35.709Z,1005.86
2023-03-16T00:20:45.729Z,1005.87
2023-03-16T00:20:55.712Z,1005.90
2023-03-16T00:21:05.748Z,1005.88
2023-03-16T00:21:15.686Z,1005.92
2023-03-16T00:21:25.710Z,1005.93
2023-03-16T00:21:35.775Z,1005.95
2023-03-16T00:21:45.683Z,1005.91
2023-03-16T00:21:55.706Z,1005.93
2023-03-16T00:22:05.683Z,1005.93
2023-03-16T00:22:15.697Z,1005.93
2023-03-16T00:22:25.722Z,1005.94
2023-03-16T00:22:35.727Z,1005.94
2023-03-16T00:22:46.319Z,1005.88
2023-03-16T00:22:55.704Z,1005.94
2023-03-16T00:23:05.728Z,1005.91
2023-03-16T00:23:15.681Z,1005.92
2023-03-16T00:23:25.691Z,1005.91
2023-03-16T00:23:35.712Z,1005.95
2023-03-16T00:23:45.683Z,1005.94
2023-03-16T00:23:55.733Z,1005.93
2023-03-16T00:24:05.677Z,1005.94
2023-03-16T00:24:15.688Z,1005.96
2023-03-16T00:24:25.706Z,1005.97
2023-03-16T00:24:35.686Z,1005.97
2023-03-16T00:24:45.683Z,1005.89
2023-03-16T00:24:55.723Z,1005.97
2023-03-16T00:25:05.675Z,1005.94
2023-03-16T00:25:15.678Z,1005.93
2023-03-16T00:25:25.760Z,1005.93
2023-03-16T00:25:35.778Z,1005.93
2023-03-16T00:25:45.699Z,1005.95
2023-03-16T00:25:55.741Z,1005.94
2023-03-16T00:26:05.671Z,1005.97
2023-03-16T00:26:15.708Z,1005.89
2023-03-16T00:26:25.738Z,1005.93
2023-03-16T00:26:36.297Z,1005.92
2023-03-16T00:26:45.695Z,1005.95
2023-03-16T00:26:55.683Z,1005.95
2023-03-16T00:27:05.694Z,1005.93
2023-03-16T00:27:15.733Z,1005.95
2023-03-16T00:27:25.659Z,1005.92
2023-03-16T00:27:35.682Z,1005.93
2023-03-16T00:27:45.705Z,1005.95
2023-03-16T00:27:55.673Z,1005.96
2023-03-16T00:28:05.697Z,1005.96
2023-03-16T00:28:15.715Z,1005.94
2023-03-16T00:28:25.663Z,1005.93
2023-03-16T00:28:35.691Z,1005.96
2023-03-16T00:28:45.726Z,1005.92
2023-03-16T00:28:55.655Z,1005.92
2023-03-16T00:29:05.780Z,1005.93
2023-03-16T00:29:15.707Z,1005.92
2023-03-16T00:29:25.651Z,1005.95
2023-03-16T00:29:35.679Z,1005.94
2023-03-16T00:29:45.720Z,1005.92
2023-03-16T00:29:56.177Z,1005.94
2023-03-16T00:30:05.662Z,1005.95
2023-03-16T00:30:15.644Z,1005.97
2023-03-16T00:30:26.087Z,1005.94
2023-03-16T00:30:35.688Z,1005.92
2023-03-16T00:30:45.707Z,1005.92
2023-03-16T00:30:55.702Z,1005.91
2023-03-16T00:31:05.665Z,1005.93
2023-03-16T00:31:15.690Z,1005.93
2023-03-16T00:31:25.694Z,1005.90
2023-03-16T00:31:35.708Z,1005.90
2023-03-16T00:31:46.250Z,1005.95
2023-03-16T00:31:55.736Z,1005.91
2023-03-16T00:32:05.783Z,1005.92
2023-03-16T00:32:16.268Z,1005.92
2023-03-16T00:32:25.689Z,1005.91
2023-03-16T00:32:35.694Z,1005.89
2023-03-16T00:32:45.780Z,1005.92
2023-03-16T00:32:55.804Z,1005.92
2023-03-16T00:33:05.764Z,1005.93
2023-03-16T00:33:15.653Z,1005.92
2023-03-16T00:33:25.634Z,1005.95
2023-03-16T00:33:35.641Z,1005.89
2023-03-16T00:33:45.678Z,1005.94
2023-03-16T00:33:56.284Z,1005.93
2023-03-16T00:34:05.630Z,1005.95
2023-03-16T00:34:15.724Z,1005.95
2023-03-16T00:34:25.671Z,1005.94
2023-03-16T00:34:35.639Z,1005.95
2023-03-16T00:34:46.292Z,1005.94
2023-03-16T00:34:55.760Z,1005.97
2023-03-16T00:35:08.192Z,1005.94
2023-03-16T00:35:15.646Z,1005.93
2023-03-16T00:35:26.292Z,1005.99
2023-03-16T00:35:35.670Z,1005.98
2023-03-16T00:35:45.652Z,1005.98
2023-03-16T00:35:55.633Z,1005.92
2023-03-16T00:36:06.321Z,1005.94
2023-03-16T00:36:15.619Z,1005.98
2023-03-16T00:36:25.622Z,1005.95
2023-03-16T00:36:35.647Z,1005.97
2023-03-16T00:36:45.657Z,1005.96
2023-03-16T00:36:55.691Z,1005.99
2023-03-16T00:37:05.800Z,1005.99
2023-03-16T00:37:15.683Z,1005.98
2023-03-16T00:37:25.711Z,1006.00
2023-03-16T00:37:35.772Z,1005.98
2023-03-16T00:37:45.664Z,1005.94
2023-03-16T00:37:55.628Z,1005.98
2023-03-16T00:38:05.626Z,1005.95
2023-03-16T00:38:15.630Z,1005.95
2023-03-16T00:38:26.372Z,1005.99
2023-03-16T00:38:35.630Z,1006.00
2023-03-16T00:38:46.284Z,1005.97
2023-03-16T00:38:55.613Z,1005.96
2023-03-16T00:39:05.735Z,1005.99
2023-03-16T00:39:15.611Z,1005.98
2023-03-16T00:39:25.727Z,1006.00
2023-03-16T00:39:35.647Z,1006.00
2023-03-16T00:39:45.606Z,1005.97
2023-03-16T00:39:55.628Z,1005.98
2023-03-16T00:40:06.282Z,1005.93
2023-03-16T00:40:15.610Z,1005.95
2023-03-16T00:40:26.221Z,1006.00
2023-03-16T00:40:35.646Z,1005.96
2023-03-16T00:40:45.613Z,1005.97
2023-03-16T00:40:55.634Z,1005.95
2023-03-16T00:41:05.669Z,1005.97
2023-03-16T00:41:15.615Z,1005.95
2023-03-16T00:41:25.612Z,1005.96
2023-03-16T00:41:35.645Z,1005.99
2023-03-16T00:41:45.594Z,1005.97
2023-03-16T00:41:55.632Z,1005.99
2023-03-16T00:42:05.623Z,1006.01
2023-03-16T00:42:15.602Z,1005.93
2023-03-16T00:42:25.594Z,1005.95
2023-03-16T00:42:35.592Z,1005.99
2023-03-16T00:42:45.612Z,1005.97
2023-03-16T00:42:55.696Z,1005.99
2023-03-16T00:43:05.632Z,1005.96
2023-03-16T00:43:15.739Z,1006.04
2023-03-16T00:43:25.625Z,1005.96
2023-03-16T00:43:35.674Z,1006.01
2023-03-16T00:43:45.641Z,1005.99
2023-03-16T00:43:55.600Z,1006.02
2023-03-16T00:44:05.641Z,1005.96
2023-03-16T00:44:16.373Z,1006.01
2023-03-16T00:44:25.606Z,1005.98
2023-03-16T00:44:35.782Z,1006.03
2023-03-16T00:44:45.616Z,1006.02
2023-03-16T00:44:55.647Z,1005.97
2023-03-16T00:45:05.620Z,1006.02
2023-03-16T00:45:15.661Z,1005.99
2023-03-16T00:45:25.640Z,1005.97
2023-03-16T00:45:35.636Z,1006.02
2023-03-16T00:45:45.657Z,1005.98
2023-03-16T00:45:55.603Z,1006.03
2023-03-16T00:46:05.808Z,1005.99
2023-03-16T00:46:15.739Z,1006.05
2023-03-16T00:46:25.575Z,1006.01
2023-03-16T00:46:35.614Z,1006.03
2023-03-16T00:46:45.634Z,1006.01
2023-03-16T00:46:55.578Z,1006.04
2023-03-16T00:47:05.611Z,1006.00
2023-03-16T00:47:15.621Z,1006.01
2023-03-16T00:47:25.592Z,1006.02
2023-03-16T00:47:35.616Z,1006.06
2023-03-16T00:47:45.606Z,1006.00
2023-03-16T00:47:55.585Z,1006.01
2023-03-16T00:48:05.561Z,1006.03
2023-03-16T00:48:15.648Z,1006.03
2023-03-16T00:48:25.600Z,1006.00
2023-03-16T00:48:35.636Z,1006.08
2023-03-16T00:48:45.673Z,1006.09
2023-03-16T00:48:55.589Z,1006.07
2023-03-16T00:49:05.618Z,1006.03
2023-03-16T00:49:15.573Z,1006.08
2023-03-16T00:49:25.677Z,1006.03
2023-03-16T00:49:35.579Z,1006.07
2023-03-16T00:49:45.654Z,1006.06
2023-03-16T00:49:55.592Z,1006.06
2023-03-16T00:50:05.658Z,1006.05
2023-03-16T00:50:15.569Z,1006.09
2023-03-16T00:50:25.973Z,1006.06
2023-03-16T00:50:35.602Z,1006.06
2023-03-16T00:50:45.580Z,1006.09
2023-03-16T00:50:55.694Z,1006.06
2023-03-16T00:51:05.602Z,1006.08
2023-03-16T00:51:15.587Z,1006.09
2023-03-16T00:51:25.599Z,1006.07
2023-03-16T00:51:35.666Z,1006.09
2023-03-16T00:51:45.580Z,1006.06
2023-03-16T00:51:55.581Z,1006.07
2023-03-16T00:52:05.552Z,1006.12
2023-03-16T00:52:15.590Z,1006.12
2023-03-16T00:52:25.595Z,1006.05
2023-03-16T00:52:35.567Z,1006.11
2023-03-16T00:52:45.559Z,1006.12
2023-03-16T00:52:55.565Z,1006.05
2023-03-16T00:53:05.560Z,1006.11
2023-03-16T00:53:15.572Z,1006.11
2023-03-16T00:53:25.594Z,1006.09
2023-03-16T00:53:35.627Z,1006.10
2023-03-16T00:53:45.589Z,1006.09
2023-03-16T00:53:56.287Z,1006.08
2023-03-16T00:54:05.677Z,1006.08
2023-03-16T00:54:15.566Z,1006.11
2023-03-16T00:54:25.608Z,1006.05
2023-03-16T00:54:35.562Z,1006.11
2023-03-16T00:54:45.581Z,1006.06
2023-03-16T00:54:55.626Z,1006.11
2023-03-16T00:55:06.302Z,1006.09
2023-03-16T00:55:15.554Z,1006.11
2023-03-16T00:55:25.540Z,1006.06
2023-03-16T00:55:36.280Z,1006.14
2023-03-16T00:55:45.543Z,1006.10
2023-03-16T00:55:55.566Z,1006.11
2023-03-16T00:56:05.544Z,1006.12
2023-03-16T00:56:15.552Z,1006.13
2023-03-16T00:56:25.544Z,1006.12
2023-03-16T00:56:35.552Z,1006.07
2023-03-16T00:56:45.554Z,1006.09
2023-03-16T00:56:55.547Z,1006.11
2023-03-16T00:57:05.556Z,1006.10
2023-03-16T00:57:15.561Z,1006.15
2023-03-16T00:57:25.616Z,1006.14
2023-03-16T00:57:35.560Z,1006.12
2023-03-16T00:57:45.591Z,1006.11
2023-03-16T00:57:55.545Z,1006.12
2023-03-16T00:58:05.535Z,1006.12
2023-03-16T00:58:15.532Z,1006.10
2023-03-16T00:58:25.543Z,1006.10
2023-03-16T00:58:35.534Z,1006.13
2023-03-16T00:58:45.540Z,1006.12
2023-03-16T00:58:55.545Z,1006.12
2023-03-16T00:59:05.533Z,1006.10
2023-03-16T00:59:15.628Z,1006.12
2023-03-16T00:59:25.550Z,1006.16
2023-03-16T00:59:35.524Z,1006.12
2023-03-16T00:59:45.609Z,1006.08
2023-03-16T00:59:56.317Z,1006.09
2023-03-16T01:00:05.646Z,1006.11
2023-03-16T01:00:15.635Z,1006.07
2023-03-16T01:00:26.023Z,1006.13
2023-03-16T01:00:35.551Z,1006.14
2023-03-16T01:00:45.528Z,1006.09
2023-03-16T01:00:56.302Z,1006.11
2023-03-16T01:01:05.618Z,1006.05
2023-03-16T01:01:15.663Z,1006.08
2023-03-16T01:01:25.563Z,1006.11
2023-03-16T01:01:35.544Z,1006.11
2023-03-16T01:01:45.556Z,1006.11
2023-03-16T01:01:55.568Z,1006.18
2023-03-16T01:02:05.525Z,1006.13
2023-03-16T01:02:15.525Z,1006.07
2023-03-16T01:02:25.563Z,1006.16
2023-03-16T01:02:35.514Z,1006.13
2023-03-16T01:02:45.649Z,1006.10
2023-03-16T01:02:55.639Z,1006.10
2023-03-16T01:03:05.623Z,1006.10
2023-03-16T01:03:15.556Z,1006.15
2023-03-16T01:03:25.588Z,1006.09
2023-03-16T01:03:35.645Z,1006.07
2023-03-16T01:03:45.550Z,1006.11
2023-03-16T01:03:55.527Z,1006.10
2023-03-16T01:04:05.666Z,1006.14
2023-03-16T01:04:15.556Z,1006.14
2023-03-16T01:04:25.596Z,1006.16
2023-03-16T01:04:35.536Z,1006.15
2023-03-16T01:04:45.511Z,1006.18
2023-03-16T01:04:55.511Z,1006.14
2023-03-16T01:05:05.516Z,1006.13
2023-03-16T01:05:15.580Z,1006.12
2023-03-16T01:05:25.505Z,1006.17
2023-03-16T01:05:35.517Z,1006.15
2023-03-16T01:05:45.668Z,1006.14
2023-03-16T01:05:55.507Z,1006.13
2023-03-16T01:06:05.546Z,1006.12
2023-03-16T01:06:15.497Z,1006.13
2023-03-16T01:06:25.505Z,1006.15
2023-03-16T01:06:35.537Z,1006.12
2023-03-16T01:06:45.516Z,1006.13
2023-03-16T01:06:55.510Z,1006.16
2023-03-16T01:07:05.522Z,1006.17
2023-03-16T01:07:15.532Z,1006.11
2023-03-16T01:07:25.509Z,1006.14
2023-03-16T01:07:35.501Z,1006.12
2023-03-16T01:07:45.495Z,1006.12
2023-03-16T01:07:55.507Z,1006.11
2023-03-16T01:08:05.534Z,1006.11
2023-03-16T01:08:15.495Z,1006.14
2023-03-16T01:08:25.502Z,1006.11
2023-03-16T01:08:35.531Z,1006.11
2023-03-16T01:08:45.528Z,1006.12
2023-03-16T01:08:55.517Z,1006.10
2023-03-16T01:09:05.514Z,1006.14
2023-03-16T01:09:15.490Z,1006.12
2023-03-16T01:09:25.511Z,1006.13
2023-03-16T01:09:35.639Z,1006.16
2023-03-16T01:09:46.340Z,1006.12
2023-03-16T01:09:55.526Z,1006.14
2023-03-16T01:10:05.549Z,1006.14
2023-03-16T01:10:16.296Z,1006.13
2023-03-16T01:10:26.014Z,1006.15
2023-03-16T01:10:35.535Z,1006.12
2023-03-16T01:10:45.489Z,1006.15
2023-03-16T01:10:56.273Z,1006.18
2023-03-16T01:11:05.491Z,1006.21
2023-03-16T01:11:15.492Z,1006.13
2023-03-16T01:11:25.522Z,1006.16
2023-03-16T01:11:35.579Z,1006.16
2023-03-16T01:11:46.278Z,1006.13
2023-03-16T01:11:55.522Z,1006.17
2023-03-16T01:12:05.513Z,1006.19
2023-03-16T01:12:15.498Z,1006.16
2023-03-16T01:12:25.542Z,1006.20
2023-03-16T01:12:35.480Z,1006.23
2023-03-16T01:12:45.553Z,1006.15
2023-03-16T01:12:55.523Z,1006.13
2023-03-16T01:13:05.508Z,1006.23
2023-03-16T01:13:15.503Z,1006.22
2023-03-16T01:13:25.534Z,1006.21
2023-03-16T01:13:35.470Z,1006.20
2023-03-16T01:13:45.488Z,1006.21
2023-03-16T01:13:55.504Z,1006.21
2023-03-16T01:14:05.494Z,1006.19
2023-03-16T01:14:15.506Z,1006.21
2023-03-16T01:14:26.296Z,1006.20
2023-03-16T01:14:35.494Z,1006.22
2023-03-16T01:14:45.500Z,1006.21
2023-03-16T01:14:55.466Z,1006.18
2023-03-16T01:15:05.480Z,1006.20
2023-03-16T01:15:15.476Z,1006.20
2023-03-16T01:15:25.476Z,1006.19
2023-03-16T01:15:35.513Z,1006.20
2023-03-16T01:15:45.536Z,1006.24
2023-03-16T01:15:55.477Z,1006.21
2023-03-16T01:16:05.487Z,1006.27
2023-03-16T01:16:15.605Z,1006.24
2023-03-16T01:16:25.514Z,1006.23
2023-03-16T01:16:35.638Z,1006.26
2023-03-16T01:16:45.485Z,1006.26
2023-03-16T01:16:55.471Z,1006.25
2023-03-16T01:17:05.605Z,1006.26
2023-03-16T01:17:15.488Z,1006.25
2023-03-16T01:17:25.466Z,1006.26
2023-03-16T01:17:35.518Z,1006.31
2023-03-16T01:17:45.461Z,1006.32
2023-03-16T01:17:55.461Z,1006.36
2023-03-16T01:18:05.495Z,1006.31
2023-03-16T01:18:15.507Z,1006.33
2023-03-16T01:18:26.297Z,1006.25
2023-03-16T01:18:35.506Z,1006.34
2023-03-16T01:18:45.463Z,1006.31
2023-03-16T01:18:55.477Z,1006.30
2023-03-16T01:19:05.515Z,1006.29
2023-03-16T01:19:15.513Z,1006.34
2023-03-16T01:19:25.476Z,1006.33
2023-03-16T01:19:35.667Z,1006.28
2023-03-16T01:19:45.462Z,1006.31
2023-03-16T01:19:55.497Z,1006.35
2023-03-16T01:20:05.521Z,1006.34
2023-03-16T01:20:15.464Z,1006.30
2023-03-16T01:20:25.752Z,1006.36
2023-03-16T01:20:35.448Z,1006.33
2023-03-16T01:20:45.867Z,1006.38
2023-03-16T01:20:55.613Z,1006.36
2023-03-16T01:21:05.445Z,1006.35
2023-03-16T01:21:15.463Z,1006.39
2023-03-16T01:21:25.484Z,1006.38
2023-03-16T01:21:35.443Z,1006.37
2023-03-16T01:21:45.476Z,1006.38
2023-03-16T01:21:55.493Z,1006.38
2023-03-16T01:22:05.555Z,1006.42
2023-03-16T01:22:15.472Z,1006.39
2023-03-16T01:22:25.491Z,1006.39
2023-03-16T01:22:35.458Z,1006.42
2023-03-16T01:22:45.482Z,1006.35
2023-03-16T01:22:55.434Z,1006.39
2023-03-16T01:23:05.434Z,1006.36
2023-03-16T01:23:15.461Z,1006.38
2023-03-16T01:23:25.499Z,1006.38
2023-03-16T01:23:35.443Z,1006.39
2023-03-16T01:23:45.447Z,1006.42
2023-03-16T01:23:55.426Z,1006.39
2023-03-16T01:24:05.456Z,1006.41
2023-03-16T01:24:15.457Z,1006.43
2023-03-16T01:24:25.434Z,1006.42
2023-03-16T01:24:35.448Z,1006.37
2023-03-16T01:24:45.488Z,1006.41
2023-03-16T01:24:55.430Z,1006.41
2023-03-16T01:25:06.262Z,1006.43
2023-03-16T01:25:15.465Z,1006.40
2023-03-16T01:25:25.438Z,1006.40
2023-03-16T01:25:35.433Z,1006.41
2023-03-16T01:25:45.455Z,1006.45
2023-03-16T01:25:55.533Z,1006.40
2023-03-16T01:26:05.456Z,1006.40
2023-03-16T01:26:15.431Z,1006.43
2023-03-16T01:26:25.429Z,1006.42
2023-03-16T01:26:36.302Z,1006.44
2023-03-16T01:26:45.422Z,1006.46
2023-03-16T01:26:56.345Z,1006.38
2023-03-16T01:27:05.514Z,1006.44
2023-03-16T01:27:15.422Z,1006.49
2023-03-16T01:27:25.435Z,1006.46
2023-03-16T01:27:35.469Z,1006.43
2023-03-16T01:27:45.511Z,1006.46
2023-03-16T01:27:55.441Z,1006.49
2023-03-16T01:28:05.437Z,1006.43
2023-03-16T01:28:15.426Z,1006.44
2023-03-16T01:28:26.280Z,1006.49
2023-03-16T01:28:35.481Z,1006.48
2023-03-16T01:28:45.446Z,1006.46
2023-03-16T01:28:55.438Z,1006.44
2023-03-16T01:29:05.487Z,1006.45
2023-03-16T01:29:16.301Z,1006.44
2023-03-16T01:29:25.426Z,1006.46
2023-03-16T01:29:35.552Z,1006.46
2023-03-16T01:29:45.420Z,1006.45
2023-03-16T01:29:55.406Z,1006.44
2023-03-16T01:30:05.413Z,1006.48
2023-03-16T01:30:15.429Z,1006.47
2023-03-16T01:30:25.885Z,1006.45
2023-03-16T01:30:35.445Z,1006.43
2023-03-16T01:30:45.450Z,1006.45
2023-03-16T01:30:55.538Z,1006.43
2023-03-16T01:31:06.022Z,1006.47
2023-03-16T01:31:15.571Z,1006.41
2023-03-16T01:31:25.454Z,1006.45
2023-03-16T01:31:35.424Z,1006.45
2023-03-16T01:31:45.420Z,1006.43
2023-03-16T01:31:56.288Z,1006.48
2023-03-16T01:32:05.403Z,1006.51
2023-03-16T01:32:15.470Z,1006.46
2023-03-16T01:32:25.477Z,1006.44
2023-03-16T01:32:35.450Z,1006.47
2023-03-16T01:32:45.542Z,1006.43
2023-03-16T01:32:55.533Z,1006.48
2023-03-16T01:33:06.428Z,1006.47
2023-03-16T01:33:15.495Z,1006.48
2023-03-16T01:33:25.461Z,1006.49
2023-03-16T01:33:35.406Z,1006.49
2023-03-16T01:33:45.455Z,1006.47
2023-03-16T01:33:55.398Z,1006.48
2023-03-16T01:34:05.404Z,1006.51
2023-03-16T01:34:15.442Z,1006.50
2023-03-16T01:34:25.394Z,1006.52
2023-03-16T01:34:36.276Z,1006.49
2023-03-16T01:34:45.445Z,1006.46
2023-03-16T01:34:55.407Z,1006.49
2023-03-16T01:35:05.464Z,1006.49
2023-03-16T01:35:15.467Z,1006.49
2023-03-16T01:35:25.430Z,1006.49
2023-03-16T01:35:35.470Z,1006.47
2023-03-16T01:35:45.425Z,1006.51
2023-03-16T01:35:55.580Z,1006.49
2023-03-16T01:36:06.392Z,1006.47
2023-03-16T01:36:15.485Z,1006.48
2023-03-16T01:36:25.408Z,1006.50
2023-03-16T01:36:35.440Z,1006.53
2023-03-16T01:36:45.387Z,1006.56
2023-03-16T01:36:55.411Z,1006.49
2023-03-16T01:37:05.442Z,1006.50
2023-03-16T01:37:15.411Z,1006.51
2023-03-16T01:37:25.460Z,1006.53
2023-03-16T01:37:35.555Z,1006.55
2023-03-16T01:37:45.412Z,1006.55
2023-03-16T01:37:55.396Z,1006.49
2023-03-16T01:38:05.424Z,1006.50
2023-03-16T01:38:16.285Z,1006.54
2023-03-16T01:38:25.393Z,1006.50
2023-03-16T01:38:35.377Z,1006.52
2023-03-16T01:38:45.390Z,1006.52
2023-03-16T01:38:55.370Z,1006.56
2023-03-16T01:39:05.463Z,1006.54
2023-03-16T01:39:15.394Z,1006.55
2023-03-16T01:39:25.447Z,1006.56
2023-03-16T01:39:35.366Z,1006.53
2023-03-16T01:39:45.385Z,1006.53
2023-03-16T01:39:55.405Z,1006.55
2023-03-16T01:40:05.368Z,1006.54
2023-03-16T01:40:15.381Z,1006.57
2023-03-16T01:40:25.428Z,1006.56
2023-03-16T01:40:35.370Z,1006.53
2023-03-16T01:40:45.403Z,1006.53
2023-03-16T01:40:55.384Z,1006.54
2023-03-16T01:41:05.423Z,1006.52
2023-03-16T01:41:15.401Z,1006.57
2023-03-16T01:41:25.462Z,1006.56
2023-03-16T01:41:35.484Z,1006.53
2023-03-16T01:41:45.401Z,1006.57
2023-03-16T01:41:55.392Z,1006.54
2023-03-16T01:42:06.294Z,1006.53
2023-03-16T01:42:15.406Z,1006.56
2023-03-16T01:42:25.368Z,1006.54
2023-03-16T01:42:35.363Z,1006.54
2023-03-16T01:42:45.367Z,1006.51
2023-03-16T01:42:55.387Z,1006.56
2023-03-16T01:43:05.377Z,1006.58
2023-03-16T01:43:16.289Z,1006.52
2023-03-16T01:43:25.366Z,1006.52
2023-03-16T01:43:35.414Z,1006.48
2023-03-16T01:43:45.475Z,1006.47
2023-03-16T01:43:55.353Z,1006.51
2023-03-16T01:44:05.378Z,1006.52
2023-03-16T01:44:15.416Z,1006.47
2023-03-16T01:44:25.363Z,1006.46
2023-03-16T01:44:35.371Z,1006.45
2023-03-16T01:44:45.432Z,1006.50
2023-03-16T01:44:55.375Z,1006.49
2023-03-16T01:45:05.348Z,1006.49
2023-03-16T01:45:15.350Z,1006.46
2023-03-16T01:45:26.303Z,1006.47
2023-03-16T01:45:38.279Z,1006.47
2023-03-16T01:45:45.517Z,1006.49
2023-03-16T01:45:55.375Z,1006.47
2023-03-16T01:46:05.548Z,1006.47
2023-03-16T01:46:15.440Z,1006.48
2023-03-16T01:46:25.455Z,1006.44
2023-03-16T01:46:35.530Z,1006.41
2023-03-16T01:46:45.364Z,1006.43
2023-03-16T01:46:56.282Z,1006.43
2023-03-16T01:47:05.389Z,1006.52
2023-03-16T01:47:16.284Z,1006.45
2023-03-16T01:47:25.370Z,1006.43
2023-03-16T01:47:35.399Z,1006.50
2023-03-16T01:47:46.277Z,1006.47
2023-03-16T01:47:55.358Z,1006.48
2023-03-16T01:48:05.350Z,1006.48
2023-03-16T01:48:15.354Z,1006.47
2023-03-16T01:48:25.363Z,1006.48
2023-03-16T01:48:35.340Z,1006.50
2023-03-16T01:48:45.338Z,1006.46
2023-03-16T01:48:55.337Z,1006.44
2023-03-16T01:49:05.345Z,1006.47
2023-03-16T01:49:15.356Z,1006.50
2023-03-16T01:49:25.363Z,1006.44
2023-03-16T01:49:35.330Z,1006.49
2023-03-16T01:49:45.363Z,1006.46
2023-03-16T01:49:55.328Z,1006.45
2023-03-16T01:50:05.347Z,1006.49
2023-03-16T01:50:16.321Z,1006.46
2023-03-16T01:50:25.728Z,1006.52
2023-03-16T01:50:35.342Z,1006.50
2023-03-16T01:50:45.352Z,1006.48
2023-03-16T01:50:55.340Z,1006.48
2023-03-16T01:51:06.297Z,1006.50
2023-03-16T01:51:15.358Z,1006.51
2023-03-16T01:51:25.326Z,1006.48
2023-03-16T01:51:35.362Z,1006.47
2023-03-16T01:51:45.384Z,1006.49
2023-03-16T01:51:56.406Z,1006.47
2023-03-16T01:52:05.331Z,1006.49
2023-03-16T01:52:15.379Z,1006.50
2023-03-16T01:52:25.317Z,1006.52
2023-03-16T01:52:35.343Z,1006.52
2023-03-16T01:52:45.324Z,1006.48
2023-03-16T01:52:56.286Z,1006.47
2023-03-16T01:53:05.337Z,1006.49
2023-03-16T01:53:15.408Z,1006.49
2023-03-16T01:53:25.314Z,1006.47
2023-03-16T01:53:35.341Z,1006.47
2023-03-16T01:53:45.414Z,1006.50
2023-03-16T01:53:56.340Z,1006.47
2023-03-16T01:54:05.552Z,1006.53
2023-03-16T01:54:15.409Z,1006.48
2023-03-16T01:54:25.328Z,1006.48
2023-03-16T01:54:35.342Z,1006.49
2023-03-16T01:54:45.374Z,1006.48
2023-03-16T01:54:55.333Z,1006.50
2023-03-16T01:55:05.309Z,1006.48
2023-03-16T01:55:15.356Z,1006.49
2023-03-16T01:55:25.336Z,1006.51
2023-03-16T01:55:35.311Z,1006.48
2023-03-16T01:55:45.413Z,1006.51
2023-03-16T01:55:55.455Z,1006.47
2023-03-16T01:56:06.371Z,1006.45
2023-03-16T01:56:15.309Z,1006.51
2023-03-16T01:56:26.336Z,1006.47
2023-03-16T01:56:35.369Z,1006.46
2023-03-16T01:56:45.303Z,1006.49
2023-03-16T01:56:55.448Z,1006.50
2023-03-16T01:57:05.348Z,1006.49
2023-03-16T01:57:15.327Z,1006.46
2023-03-16T01:57:25.322Z,1006.45
2023-03-16T01:57:35.302Z,1006.48
2023-03-16T01:57:45.306Z,1006.47
2023-03-16T01:57:55.326Z,1006.50
2023-03-16T01:58:05.301Z,1006.43
2023-03-16T01:58:15.488Z,1006.48
2023-03-16T01:58:25.294Z,1006.47
2023-03-16T01:58:35.395Z,1006.48
2023-03-16T01:58:45.352Z,1006.47
2023-03-16T01:58:55.336Z,1006.49
2023-03-16T01:59:05.301Z,1006.48
2023-03-16T01:59:15.323Z,1006.49
2023-03-16T01:59:25.358Z,1006.52
2023-03-16T01:59:36.311Z,1006.50
2023-03-16T01:59:45.312Z,1006.52
2023-03-16T01:59:55.339Z,1006.49
2023-03-16T02:00:06.321Z,1006.53
2023-03-16T02:00:16.344Z,1006.51
2023-03-16T02:00:25.470Z,1006.48
2023-03-16T02:00:35.303Z,1006.53
2023-03-16T02:00:45.301Z,1006.50
2023-03-16T02:00:55.338Z,1006.52